Stolt Spray — ZCSQ9 — position and weather

sailwx.info

Track history (hours):
 
Tides and Currents Weather Stations Pressure Air Temp Water Temp Dewpoint Dewpoint Depression Visibility Wind Speed Wind Dir Waves Ship Positions

Stolt Spray

Last reported at 2016-Apr-24 17:13 UTC. Time now 2016-May-26 06:54 UTC.
Position N 36°16' E 014°48'.
Warning: this ship's position is 31 days out of date.

Length 163 m; draft 8.9 m.

Type: Ship (hazmat cat A). MMSI: 319591000.

Date/timePositionNaut miles runAvg speedWind from/ knotsBaromVisibWave heightAir tempDewpointWater temp
2016-Apr-24 17:13N 36°16' E 014°48'1015.2
2016-Apr-24 16:33N 36°19' E 014°36'1515.0
2016-Apr-24 15:33N 36°23' E 014°18'62814.2
2016-Apr-22 19:23N 36°52' E 001°17'3115.0
2016-Apr-22 17:20N 36°47' E 000°39'1615.1
2016-Apr-22 16:16N 36°44' E 000°19'26914.8
2016-Apr-21 22:09N 36°01' W 005°10'915.4
2016-Apr-21 21:34N 36°04' W 005°21'5 0.1
2016-Apr-20 04:17N 36°08' W 005°24'5 6.9
2016-Apr-20 03:34N 36°03' W 005°23'24711.7
2016-Apr-19 06:24N 37°57' W 009°57'1414.2
2016-Apr-19 05:24N 38°11' W 010°02'1214.7
2016-Apr-19 04:33N 38°23' W 010°06'1914.6
2016-Apr-19 03:17N 38°41' W 010°12'1114.7
2016-Apr-19 02:32N 38°52' W 010°11'1414.5
2016-Apr-19 01:33N 39°06' W 010°10'69913.9
2016-Apr-16 23:11N 49°45' W 003°32'914.4
2016-Apr-16 22:33N 49°50' W 003°20'1514.8
2016-Apr-16 21:33N 49°57' W 003°00'10513.2
2016-Apr-16 13:33N 50°26' W 000°23'1413.9
2016-Apr-16 12:31N 50°30' W 000°01'1414.2
2016-Apr-16 11:33N 50°34' E 000°20'4113.7
2016-Apr-16 08:33N 50°55' E 001°16'1211.9
2016-Apr-16 07:33N 51°03' E 001°30'1111.5
2016-Apr-16 06:34N 51°11' E 001°43'1212.3
2016-Apr-16 05:34N 51°21' E 001°54'1313.1
2016-Apr-16 04:34N 51°32' E 002°06'6612.5
2016-Apr-15 23:16N 52°03' E 003°40'912.2
2016-Apr-15 22:33N 52°02' E 003°54'1312.7
2016-Apr-15 21:33N 51°56' E 004°12'4 4.0
2016-Apr-15 20:28N 51°53' E 004°16'0 0.0
2016-Apr-15 19:19N 51°53' E 004°16'0 0.0
2016-Apr-15 18:07N 51°53' E 004°16'0 0.0
2016-Apr-15 17:28N 51°53' E 004°16'0 0.0
2016-Apr-15 16:31N 51°53' E 004°16'0 0.0
2016-Apr-15 15:13N 51°53' E 004°16'0 0.0
2016-Apr-15 14:25N 51°53' E 004°16'0 0.0
2016-Apr-15 13:28N 51°53' E 004°16'0 0.0
2016-Apr-15 12:31N 51°53' E 004°16'0 0.0
2016-Apr-15 11:28N 51°53' E 004°16'0 0.0
2016-Apr-15 10:31N 51°53' E 004°16'0 0.0
2016-Apr-15 09:31N 51°53' E 004°16'0 0.0
2016-Apr-15 08:07N 51°53' E 004°16'0 0.0
2016-Apr-15 07:31N 51°53' E 004°16'0 0.0
2016-Apr-15 06:22N 51°53' E 004°16'0 0.0
2016-Apr-15 05:28N 51°53' E 004°16'0 0.0
2016-Apr-15 04:31N 51°53' E 004°16'0 0.0
2016-Apr-15 03:25N 51°53' E 004°16'0 0.0
2016-Apr-15 02:25N 51°53' E 004°16'0 0.0
2016-Apr-15 01:31N 51°53' E 004°16'0 0.0
2016-Apr-15 00:31N 51°53' E 004°16'0 0.0
2016-Apr-14 23:28N 51°53' E 004°16'0 0.0
2016-Apr-14 22:25N 51°53' E 004°16'0 0.0
2016-Apr-14 21:31N 51°53' E 004°16'0 0.0
2016-Apr-14 20:31N 51°53' E 004°16'0 0.0
2016-Apr-14 19:31N 51°53' E 004°16'  
Track history (hours):
 
Tides and Currents Weather Stations Pressure Air Temp Water Temp Dewpoint Dewpoint Depression Visibility Wind Speed Wind Dir Waves Ship Positions

Stolt Spray

Last reported at 2016-Apr-24 17:13 UTC. Time now 2016-May-26 06:54 UTC.
Position N 36°16' E 014°48'.
Warning: this ship's position is 31 days out of date.

Length 163 m; draft 8.9 m.

Type: Ship (hazmat cat A). MMSI: 319591000.

Date/timePositionNaut miles runAvg speedWind from/ knotsBaromVisibWave heightAir tempDewpointWater temp
2016-Apr-24 17:13N 36°16' E 014°48'1015.2
2016-Apr-24 16:33N 36°19' E 014°36'1515.0
2016-Apr-24 15:33N 36°23' E 014°18'62814.2
2016-Apr-22 19:23N 36°52' E 001°17'3115.0
2016-Apr-22 17:20N 36°47' E 000°39'1615.1
2016-Apr-22 16:16N 36°44' E 000°19'26914.8
2016-Apr-21 22:09N 36°01' W 005°10'915.4
2016-Apr-21 21:34N 36°04' W 005°21'5 0.1
2016-Apr-20 04:17N 36°08' W 005°24'5 6.9
2016-Apr-20 03:34N 36°03' W 005°23'24711.7
2016-Apr-19 06:24N 37°57' W 009°57'1414.2
2016-Apr-19 05:24N 38°11' W 010°02'1214.7
2016-Apr-19 04:33N 38°23' W 010°06'1914.6
2016-Apr-19 03:17N 38°41' W 010°12'1114.7
2016-Apr-19 02:32N 38°52' W 010°11'1414.5
2016-Apr-19 01:33N 39°06' W 010°10'69913.9
2016-Apr-16 23:11N 49°45' W 003°32'914.4
2016-Apr-16 22:33N 49°50' W 003°20'1514.8
2016-Apr-16 21:33N 49°57' W 003°00'10513.2
2016-Apr-16 13:33N 50°26' W 000°23'1413.9
2016-Apr-16 12:31N 50°30' W 000°01'1414.2
2016-Apr-16 11:33N 50°34' E 000°20'4113.7
2016-Apr-16 08:33N 50°55' E 001°16'1211.9
2016-Apr-16 07:33N 51°03' E 001°30'1111.5
2016-Apr-16 06:34N 51°11' E 001°43'1212.3
2016-Apr-16 05:34N 51°21' E 001°54'1313.1
2016-Apr-16 04:34N 51°32' E 002°06'6612.5
2016-Apr-15 23:16N 52°03' E 003°40'912.2
2016-Apr-15 22:33N 52°02' E 003°54'1312.7
2016-Apr-15 21:33N 51°56' E 004°12'4 4.0
2016-Apr-15 20:28N 51°53' E 004°16'0 0.0
2016-Apr-15 19:19N 51°53' E 004°16'0 0.0
2016-Apr-15 18:07N 51°53' E 004°16'0 0.0
2016-Apr-15 17:28N 51°53' E 004°16'0 0.0
2016-Apr-15 16:31N 51°53' E 004°16'0 0.0
2016-Apr-15 15:13N 51°53' E 004°16'0 0.0
2016-Apr-15 14:25N 51°53' E 004°16'0 0.0
2016-Apr-15 13:28N 51°53' E 004°16'0 0.0
2016-Apr-15 12:31N 51°53' E 004°16'0 0.0
2016-Apr-15 11:28N 51°53' E 004°16'0 0.0
2016-Apr-15 10:31N 51°53' E 004°16'0 0.0
2016-Apr-15 09:31N 51°53' E 004°16'0 0.0
2016-Apr-15 08:07N 51°53' E 004°16'0 0.0
2016-Apr-15 07:31N 51°53' E 004°16'0 0.0
2016-Apr-15 06:22N 51°53' E 004°16'0 0.0
2016-Apr-15 05:28N 51°53' E 004°16'0 0.0
2016-Apr-15 04:31N 51°53' E 004°16'0 0.0
2016-Apr-15 03:25N 51°53' E 004°16'0 0.0
2016-Apr-15 02:25N 51°53' E 004°16'0 0.0
2016-Apr-15 01:31N 51°53' E 004°16'0 0.0
2016-Apr-15 00:31N 51°53' E 004°16'0 0.0
2016-Apr-14 23:28N 51°53' E 004°16'0 0.0
2016-Apr-14 22:25N 51°53' E 004°16'0 0.0
2016-Apr-14 21:31N 51°53' E 004°16'0 0.0
2016-Apr-14 20:31N 51°53' E 004°16'0 0.0
2016-Apr-14 19:31N 51°53' E 004°16'  

Dump ship's entire track history